sensor_id;sensor_type;location;lat;lon;timestamp;pressure;altitude;pressure_sealevel;temperature;humidity
46392;BME280;32098;49.448;7.904;2023-03-14T00:00:20;96367.13;;;8.37;77.78
46392;BME280;32098;49.448;7.904;2023-03-14T00:02:52;96370.88;;;8.51;78.53
46392;BME280;32098;49.448;7.904;2023-03-14T00:05:19;96339.47;;;8.48;77.76
46392;BME280;32098;49.448;7.904;2023-03-14T00:07:45;96360.25;;;8.51;77.62
46392;BME280;32098;49.448;7.904;2023-03-14T00:10:14;96375.41;;;8.55;78.05
46392;BME280;32098;49.448;7.904;2023-03-14T00:12:41;96367.66;;;8.39;79.28
46392;BME280;32098;49.448;7.904;2023-03-14T00:15:08;96370.31;;;8.39;80.07
46392;BME280;32098;49.448;7.904;2023-03-14T00:17:35;96365.53;;;8.36;81.10
46392;BME280;32098;49.448;7.904;2023-03-14T00:20:03;96357.53;;;8.36;81.22
46392;BME280;32098;49.448;7.904;2023-03-14T00:22:35;96348.72;;;8.25;81.17
46392;BME280;32098;49.448;7.904;2023-03-14T00:25:04;96347.94;;;8.30;81.72
46392;BME280;32098;49.448;7.904;2023-03-14T00:27:31;96330.13;;;8.30;81.74
46392;BME280;32098;49.448;7.904;2023-03-14T00:29:58;96329.31;;;8.30;81.89
46392;BME280;32098;49.448;7.904;2023-03-14T00:32:24;96329.63;;;8.43;81.28
46392;BME280;32098;49.448;7.904;2023-03-14T00:34:51;96320.84;;;8.38;80.70
46392;BME280;32098;49.448;7.904;2023-03-14T00:37:18;96331.75;;;8.41;80.79
46392;BME280;32098;49.448;7.904;2023-03-14T00:39:44;96336.00;;;8.42;80.63
46392;BME280;32098;49.448;7.904;2023-03-14T00:42:11;96348.56;;;8.57;80.04
46392;BME280;32098;49.448;7.904;2023-03-14T00:44:37;96348.28;;;8.48;80.38
46392;BME280;32098;49.448;7.904;2023-03-14T00:47:06;96348.00;;;8.55;80.58
46392;BME280;32098;49.448;7.904;2023-03-14T00:49:33;96354.06;;;8.35;80.97
46392;BME280;32098;49.448;7.904;2023-03-14T00:52:00;96347.91;;;8.25;81.85
46392;BME280;32098;49.448;7.904;2023-03-14T00:54:26;96361.47;;;8.23;81.84
46392;BME280;32098;49.448;7.904;2023-03-14T00:56:53;96362.34;;;8.44;81.10
46392;BME280;32098;49.448;7.904;2023-03-14T00:59:19;96360.72;;;8.38;81.39
46392;BME280;32098;49.448;7.904;2023-03-14T01:01:46;96359.13;;;8.32;81.54
46392;BME280;32098;49.448;7.904;2023-03-14T01:04:13;96359.16;;;8.37;82.01
46392;BME280;32098;49.448;7.904;2023-03-14T01:06:39;96357.81;;;8.39;82.12
46392;BME280;32098;49.448;7.904;2023-03-14T01:09:06;96346.38;;;8.34;82.21
46392;BME280;32098;49.448;7.904;2023-03-14T01:11:34;96351.66;;;8.29;82.68
46392;BME280;32098;49.448;7.904;2023-03-14T01:14:02;96331.38;;;8.13;82.62
46392;BME280;32098;49.448;7.904;2023-03-14T01:16:32;96343.09;;;8.12;83.12
46392;BME280;32098;49.448;7.904;2023-03-14T01:19:00;96330.56;;;8.02;83.25
46392;BME280;32098;49.448;7.904;2023-03-14T01:21:29;96343.94;;;8.17;82.95
46392;BME280;32098;49.448;7.904;2023-03-14T01:23:57;96337.50;;;8.08;82.73
46392;BME280;32098;49.448;7.904;2023-03-14T01:26:26;96335.38;;;8.10;82.00
46392;BME280;32098;49.448;7.904;2023-03-14T01:28:54;96329.75;;;8.02;81.83
46392;BME280;32098;49.448;7.904;2023-03-14T01:31:22;96338.34;;;8.19;81.22
46392;BME280;32098;49.448;7.904;2023-03-14T01:33:51;96343.31;;;8.05;81.50
46392;BME280;32098;49.448;7.904;2023-03-14T01:36:18;96354.00;;;8.15;81.22
46392;BME280;32098;49.448;7.904;2023-03-14T01:38:45;96344.69;;;8.13;82.98
46392;BME280;32098;49.448;7.904;2023-03-14T01:41:17;96335.88;;;8.02;84.40
46392;BME280;32098;49.448;7.904;2023-03-14T01:43:45;96335.38;;;8.10;84.70
46392;BME280;32098;49.448;7.904;2023-03-14T01:46:25;96328.16;;;8.06;85.75
46392;BME280;32098;49.448;7.904;2023-03-14T01:51:44;96301.84;;;7.99;85.26
46392;BME280;32098;49.448;7.904;2023-03-14T01:56:51;96313.53;;;8.03;86.03
46392;BME280;32098;49.448;7.904;2023-03-14T01:59:19;96307.19;;;8.04;85.69
46392;BME280;32098;49.448;7.904;2023-03-14T02:01:47;96293.59;;;8.01;86.31
46392;BME280;32098;49.448;7.904;2023-03-14T02:04:16;96284.56;;;8.02;86.83
46392;BME280;32098;49.448;7.904;2023-03-14T02:06:48;96279.00;;;8.08;86.05
46392;BME280;32098;49.448;7.904;2023-03-14T02:09:17;96278.75;;;8.10;85.23
46392;BME280;32098;49.448;7.904;2023-03-14T02:11:44;96265.19;;;8.11;85.22
46392;BME280;32098;49.448;7.904;2023-03-14T02:14:44;96266.53;;;8.14;84.22
46392;BME280;32098;49.448;7.904;2023-03-14T02:17:24;96268.66;;;8.12;84.53
46392;BME280;32098;49.448;7.904;2023-03-14T02:20:28;96255.38;;;8.12;83.51
46392;BME280;32098;49.448;7.904;2023-03-14T02:22:58;96249.81;;;8.23;83.30
46392;BME280;32098;49.448;7.904;2023-03-14T02:25:43;96258.00;;;8.02;83.34
46392;BME280;32098;49.448;7.904;2023-03-14T02:28:11;96252.66;;;7.97;84.34
46392;BME280;32098;49.448;7.904;2023-03-14T02:30:39;96248.91;;;7.92;84.02
46392;BME280;32098;49.448;7.904;2023-03-14T02:33:12;96239.34;;;7.86;83.62
46392;BME280;32098;49.448;7.904;2023-03-14T02:35:51;96231.81;;;7.68;84.15
46392;BME280;32098;49.448;7.904;2023-03-14T02:38:24;96239.28;;;7.71;84.83
46392;BME280;32098;49.448;7.904;2023-03-14T02:40:53;96237.16;;;7.73;84.44
46392;BME280;32098;49.448;7.904;2023-03-14T02:43:20;96231.06;;;7.78;83.88
46392;BME280;32098;49.448;7.904;2023-03-14T02:45:52;96213.53;;;7.77;82.89
46392;BME280;32098;49.448;7.904;2023-03-14T02:48:36;96241.16;;;7.81;82.21
46392;BME280;32098;49.448;7.904;2023-03-14T02:51:06;96231.91;;;7.88;81.89
46392;BME280;32098;49.448;7.904;2023-03-14T02:53:34;96237.78;;;8.01;81.11
46392;BME280;32098;49.448;7.904;2023-03-14T03:09:03;96218.59;;;7.83;80.96
46392;BME280;32098;49.448;7.904;2023-03-14T03:11:30;96210.56;;;7.63;79.95
46392;BME280;32098;49.448;7.904;2023-03-14T03:13:58;96216.66;;;7.59;80.52
46392;BME280;32098;49.448;7.904;2023-03-14T03:16:26;96211.09;;;7.65;80.66
46392;BME280;32098;49.448;7.904;2023-03-14T03:18:53;96195.94;;;7.66;80.59
46392;BME280;32098;49.448;7.904;2023-03-14T03:21:19;96190.97;;;7.79;80.18
46392;BME280;32098;49.448;7.904;2023-03-14T03:23:49;96177.69;;;7.84;80.00
46392;BME280;32098;49.448;7.904;2023-03-14T03:26:16;96160.88;;;7.59;80.23
46392;BME280;32098;49.448;7.904;2023-03-14T03:28:43;96159.03;;;7.59;80.93
46392;BME280;32098;49.448;7.904;2023-03-14T03:31:11;96144.66;;;7.55;81.20
46392;BME280;32098;49.448;7.904;2023-03-14T03:33:38;96131.34;;;7.45;81.85
46392;BME280;32098;49.448;7.904;2023-03-14T03:36:06;96131.84;;;7.32;81.63
46392;BME280;32098;49.448;7.904;2023-03-14T03:38:35;96117.00;;;7.41;81.54
46392;BME280;32098;49.448;7.904;2023-03-14T03:41:07;96108.47;;;7.29;81.33
46392;BME280;32098;49.448;7.904;2023-03-14T03:43:34;96129.97;;;7.32;81.22
46392;BME280;32098;49.448;7.904;2023-03-14T03:46:04;96131.84;;;7.32;81.90
46392;BME280;32098;49.448;7.904;2023-03-14T03:48:32;96126.00;;;7.40;81.77
46392;BME280;32098;49.448;7.904;2023-03-14T03:51:02;96133.19;;;7.50;81.27
46392;BME280;32098;49.448;7.904;2023-03-14T03:53:29;96127.34;;;7.43;81.28
46392;BME280;32098;49.448;7.904;2023-03-14T03:56:03;96116.44;;;7.34;81.61
46392;BME280;32098;49.448;7.904;2023-03-14T03:58:30;96115.09;;;7.32;81.31
46392;BME280;32098;49.448;7.904;2023-03-14T04:00:57;96110.28;;;7.23;81.05
46392;BME280;32098;49.448;7.904;2023-03-14T04:03:23;96116.41;;;7.29;81.32
46392;BME280;32098;49.448;7.904;2023-03-14T04:06:02;96105.50;;;7.25;80.95
46392;BME280;32098;49.448;7.904;2023-03-14T04:08:31;96095.69;;;7.21;81.18
46392;BME280;32098;49.448;7.904;2023-03-14T04:10:59;96096.25;;;7.33;81.67
46392;BME280;32098;49.448;7.904;2023-03-14T04:13:44;96082.69;;;7.24;81.60
46392;BME280;32098;49.448;7.904;2023-03-14T04:16:20;96079.16;;;7.09;82.74
46392;BME280;32098;49.448;7.904;2023-03-14T04:18:48;96087.44;;;7.17;82.01
46392;BME280;32098;49.448;7.904;2023-03-14T04:21:18;96088.53;;;7.21;81.72
46392;BME280;32098;49.448;7.904;2023-03-14T04:23:48;96088.00;;;7.19;81.65
46392;BME280;32098;49.448;7.904;2023-03-14T04:26:16;96093.53;;;7.18;81.78
46392;BME280;32098;49.448;7.904;2023-03-14T04:28:43;96090.56;;;7.09;81.36
46392;BME280;32098;49.448;7.904;2023-03-14T04:31:12;96094.00;;;7.10;81.26
46392;BME280;32098;49.448;7.904;2023-03-14T04:33:39;96094.84;;;7.15;81.53
46392;BME280;32098;49.448;7.904;2023-03-14T04:36:07;96089.31;;;7.17;81.46
46392;BME280;32098;49.448;7.904;2023-03-14T04:38:34;96084.75;;;7.12;81.53
46392;BME280;32098;49.448;7.904;2023-03-14T04:41:01;96078.84;;;7.05;82.38
46392;BME280;32098;49.448;7.904;2023-03-14T04:43:31;96077.84;;;7.11;82.66
46392;BME280;32098;49.448;7.904;2023-03-14T04:46:03;96047.03;;;7.10;83.39
46392;BME280;32098;49.448;7.904;2023-03-14T04:48:29;96051.50;;;7.00;83.82
46392;BME280;32098;49.448;7.904;2023-03-14T04:50:57;96042.75;;;6.99;84.14
46392;BME280;32098;49.448;7.904;2023-03-14T04:53:24;96045.16;;;7.01;84.44
46392;BME280;32098;49.448;7.904;2023-03-14T04:55:55;96024.94;;;6.95;83.73
46392;BME280;32098;49.448;7.904;2023-03-14T04:58:24;96026.56;;;7.01;84.25
46392;BME280;32098;49.448;7.904;2023-03-14T05:00:52;96020.44;;;6.95;83.74
46392;BME280;32098;49.448;7.904;2023-03-14T05:03:37;96020.69;;;6.89;83.70
46392;BME280;32098;49.448;7.904;2023-03-14T05:06:07;96014.34;;;6.95;83.84
46392;BME280;32098;49.448;7.904;2023-03-14T05:09:00;96021.72;;;6.83;83.36
46392;BME280;32098;49.448;7.904;2023-03-14T05:11:45;96017.25;;;6.93;82.92
46392;BME280;32098;49.448;7.904;2023-03-14T05:14:35;96005.34;;;6.96;82.36
46392;BME280;32098;49.448;7.904;2023-03-14T05:17:01;96016.75;;;7.01;82.35
46392;BME280;32098;49.448;7.904;2023-03-14T05:19:35;96020.44;;;6.95;82.58
46392;BME280;32098;49.448;7.904;2023-03-14T05:22:19;96016.19;;;6.89;82.63
46392;BME280;32098;49.448;7.904;2023-03-14T05:24:55;96015.63;;;6.87;82.79
46392;BME280;32098;49.448;7.904;2023-03-14T05:27:43;96013.78;;;6.88;83.16
46392;BME280;32098;49.448;7.904;2023-03-14T05:30:28;96019.13;;;6.98;82.62
46392;BME280;32098;49.448;7.904;2023-03-14T05:33:27;96020.78;;;7.09;81.47
46392;BME280;32098;49.448;7.904;2023-03-14T05:36:07;96011.72;;;7.05;81.70
46392;BME280;32098;49.448;7.904;2023-03-14T05:39:03;96021.84;;;7.13;82.14
46392;BME280;32098;49.448;7.904;2023-03-14T05:41:38;96017.56;;;7.02;82.78
46392;BME280;32098;49.448;7.904;2023-03-14T05:44:21;96025.53;;;7.02;82.49
46392;BME280;32098;49.448;7.904;2023-03-14T05:46:54;96024.44;;;7.03;82.44
46392;BME280;32098;49.448;7.904;2023-03-14T05:49:33;96011.47;;;7.06;82.08
46392;BME280;32098;49.448;7.904;2023-03-14T05:52:31;96017.09;;;7.20;81.50
46392;BME280;32098;49.448;7.904;2023-03-14T05:55:29;96024.53;;;7.18;81.49
46392;BME280;32098;49.448;7.904;2023-03-14T05:58:20;95989.41;;;6.91;80.86
46392;BME280;32098;49.448;7.904;2023-03-14T06:01:06;96016.00;;;7.11;81.45
46392;BME280;32098;49.448;7.904;2023-03-14T06:03:55;96021.34;;;7.16;80.83
46392;BME280;32098;49.448;7.904;2023-03-14T06:06:22;96011.03;;;7.24;81.26
46392;BME280;32098;49.448;7.904;2023-03-14T06:08:49;96010.72;;;7.16;81.58
46392;BME280;32098;49.448;7.904;2023-03-14T06:11:16;96021.88;;;7.18;81.85
46392;BME280;32098;49.448;7.904;2023-03-14T06:13:42;96031.97;;;7.16;82.26
46392;BME280;32098;49.448;7.904;2023-03-14T06:16:09;96031.44;;;7.14;82.43
46392;BME280;32098;49.448;7.904;2023-03-14T06:18:35;96038.06;;;7.16;82.33
46392;BME280;32098;49.448;7.904;2023-03-14T06:21:05;96041.47;;;7.07;83.08
46392;BME280;32098;49.448;7.904;2023-03-14T06:23:35;96033.50;;;7.07;83.37
46392;BME280;32098;49.448;7.904;2023-03-14T06:26:02;96039.41;;;7.14;84.28
46392;BME280;32098;49.448;7.904;2023-03-14T06:28:29;96010.09;;;6.89;84.51
46392;BME280;32098;49.448;7.904;2023-03-14T06:31:00;96040.38;;;7.03;84.88
46392;BME280;32098;49.448;7.904;2023-03-14T06:33:31;96039.84;;;7.01;85.34
46392;BME280;32098;49.448;7.904;2023-03-14T06:35:59;96040.38;;;7.08;85.13
46392;BME280;32098;49.448;7.904;2023-03-14T06:38:26;96047.88;;;7.16;84.95
46392;BME280;32098;49.448;7.904;2023-03-14T06:40:54;96051.28;;;7.11;84.69
46392;BME280;32098;49.448;7.904;2023-03-14T06:43:33;96043.81;;;7.03;84.99
46392;BME280;32098;49.448;7.904;2023-03-14T06:46:00;96061.44;;;7.14;84.92
46392;BME280;32098;49.448;7.904;2023-03-14T06:48:26;96066.13;;;7.07;84.07
46392;BME280;32098;49.448;7.904;2023-03-14T06:50:54;96065.66;;;7.15;84.42
46392;BME280;32098;49.448;7.904;2023-03-14T06:53:21;96051.59;;;7.15;84.56
46392;BME280;32098;49.448;7.904;2023-03-14T06:55:48;96057.91;;;7.09;84.38
46392;BME280;32098;49.448;7.904;2023-03-14T06:58:16;96066.75;;;7.14;84.54
46392;BME280;32098;49.448;7.904;2023-03-14T07:00:44;96064.63;;;7.16;84.69
46392;BME280;32098;49.448;7.904;2023-03-14T07:03:14;96065.94;;;7.14;84.81
46392;BME280;32098;49.448;7.904;2023-03-14T07:05:44;96072.84;;;7.25;83.76
46392;BME280;32098;49.448;7.904;2023-03-14T07:08:11;96059.81;;;7.13;83.83
46392;BME280;32098;49.448;7.904;2023-03-14T07:10:37;96070.72;;;7.17;84.54
46392;BME280;32098;49.448;7.904;2023-03-14T07:13:06;96061.09;;;7.11;83.92
46392;BME280;32098;49.448;7.904;2023-03-14T07:15:37;96055.31;;;7.14;84.86
46392;BME280;32098;49.448;7.904;2023-03-14T07:18:07;96058.44;;;7.06;84.35
46392;BME280;32098;49.448;7.904;2023-03-14T07:20:34;96061.38;;;7.09;84.76
46392;BME280;32098;49.448;7.904;2023-03-14T07:23:03;96074.44;;;7.16;84.67
46392;BME280;32098;49.448;7.904;2023-03-14T07:25:37;96060.31;;;7.10;84.95
46392;BME280;32098;49.448;7.904;2023-03-14T07:28:04;96070.19;;;7.25;85.02
46392;BME280;32098;49.448;7.904;2023-03-14T07:30:31;96069.44;;;7.29;84.82
46392;BME280;32098;49.448;7.904;2023-03-14T07:33:00;96063.88;;;7.31;84.53
46392;BME280;32098;49.448;7.904;2023-03-14T07:35:27;96055.81;;;7.11;84.45
46392;BME280;32098;49.448;7.904;2023-03-14T07:37:54;96053.47;;;7.14;84.25
46392;BME280;32098;49.448;7.904;2023-03-14T07:40:27;96058.53;;;7.26;83.26
46392;BME280;32098;49.448;7.904;2023-03-14T07:42:54;96048.44;;;7.23;82.78
46392;BME280;32098;49.448;7.904;2023-03-14T07:45:27;96049.53;;;7.32;82.50
46392;BME280;32098;49.448;7.904;2023-03-14T07:47:53;96063.38;;;7.49;82.48
46392;BME280;32098;49.448;7.904;2023-03-14T07:50:25;96067.09;;;7.53;82.56
46392;BME280;32098;49.448;7.904;2023-03-14T07:52:52;96052.47;;;7.46;82.63
46392;BME280;32098;49.448;7.904;2023-03-14T07:55:18;96068.94;;;7.48;83.80
46392;BME280;32098;49.448;7.904;2023-03-14T07:57:45;96066.84;;;7.75;83.83
46392;BME280;32098;49.448;7.904;2023-03-14T08:00:12;96081.47;;;7.77;83.72
46392;BME280;32098;49.448;7.904;2023-03-14T08:02:41;96074.56;;;7.71;83.80
46392;BME280;32098;49.448;7.904;2023-03-14T08:05:08;96078.81;;;7.77;83.95
46392;BME280;32098;49.448;7.904;2023-03-14T08:07:35;96074.31;;;7.83;84.10
46392;BME280;32098;49.448;7.904;2023-03-14T08:10:02;96062.34;;;7.75;84.89
46392;BME280;32098;49.448;7.904;2023-03-14T08:12:29;96067.66;;;7.65;85.19
46392;BME280;32098;49.448;7.904;2023-03-14T08:14:55;96067.94;;;7.69;85.35
46392;BME280;32098;49.448;7.904;2023-03-14T08:17:21;96071.38;;;7.64;85.07
46392;BME280;32098;49.448;7.904;2023-03-14T08:19:48;96083.59;;;7.75;85.49
46392;BME280;32098;49.448;7.904;2023-03-14T08:22:14;96080.91;;;7.60;84.64
46392;BME280;32098;49.448;7.904;2023-03-14T08:24:45;96087.84;;;7.71;84.76
46392;BME280;32098;49.448;7.904;2023-03-14T08:27:12;96085.22;;;7.81;84.94
46392;BME280;32098;49.448;7.904;2023-03-14T08:29:40;96075.38;;;7.77;84.20
46392;BME280;32098;49.448;7.904;2023-03-14T08:32:08;96088.69;;;7.82;83.79
46392;BME280;32098;49.448;7.904;2023-03-14T08:34:35;96087.38;;;8.05;83.97
46392;BME280;32098;49.448;7.904;2023-03-14T08:37:01;96083.38;;;8.02;82.29
46392;BME280;32098;49.448;7.904;2023-03-14T08:39:31;96080.44;;;8.44;82.44
46392;BME280;32098;49.448;7.904;2023-03-14T08:41:58;96078.81;;;8.73;82.13
46392;BME280;32098;49.448;7.904;2023-03-14T08:44:24;96079.06;;;8.67;80.97
46392;BME280;32098;49.448;7.904;2023-03-14T08:46:51;96079.91;;;8.72;80.61
46392;BME280;32098;49.448;7.904;2023-03-14T08:49:17;96088.63;;;8.83;80.59
46392;BME280;32098;49.448;7.904;2023-03-14T08:51:44;96085.22;;;8.72;80.95
46392;BME280;32098;49.448;7.904;2023-03-14T08:54:10;96070.84;;;8.53;81.78
46392;BME280;32098;49.448;7.904;2023-03-14T08:56:37;96085.25;;;8.17;84.32
46392;BME280;32098;49.448;7.904;2023-03-14T08:59:05;96083.38;;;8.07;84.81
46392;BME280;32098;49.448;7.904;2023-03-14T09:01:31;96076.97;;;7.93;84.74
46392;BME280;32098;49.448;7.904;2023-03-14T09:03:58;96085.22;;;7.91;85.31
46392;BME280;32098;49.448;7.904;2023-03-14T09:06:24;96089.72;;;7.86;85.91
46392;BME280;32098;49.448;7.904;2023-03-14T09:08:51;96091.06;;;7.88;86.49
46392;BME280;32098;49.448;7.904;2023-03-14T09:11:17;96097.72;;;8.06;86.61
46392;BME280;32098;49.448;7.904;2023-03-14T09:13:44;96095.06;;;8.06;85.66
46392;BME280;32098;49.448;7.904;2023-03-14T09:16:11;96098.53;;;8.17;86.20
46392;BME280;32098;49.448;7.904;2023-03-14T09:18:37;96094.25;;;8.06;85.92
46392;BME280;32098;49.448;7.904;2023-03-14T09:21:04;96110.50;;;8.09;86.64
46392;BME280;32098;49.448;7.904;2023-03-14T09:23:31;96104.38;;;7.99;86.41
46392;BME280;32098;49.448;7.904;2023-03-14T09:25:58;96097.19;;;8.04;86.64
46392;BME280;32098;49.448;7.904;2023-03-14T09:28:25;96099.06;;;8.14;86.19
46392;BME280;32098;49.448;7.904;2023-03-14T09:30:52;96105.41;;;8.53;85.70
46392;BME280;32098;49.448;7.904;2023-03-14T09:33:18;96114.47;;;8.62;85.30
46392;BME280;32098;49.448;7.904;2023-03-14T09:35:45;96107.53;;;8.61;83.67
46392;BME280;32098;49.448;7.904;2023-03-14T09:38:11;96108.59;;;8.70;83.87
46392;BME280;32098;49.448;7.904;2023-03-14T09:40:38;96105.94;;;8.80;82.98
46392;BME280;32098;49.448;7.904;2023-03-14T09:43:05;96112.84;;;8.81;82.50
46392;BME280;32098;49.448;7.904;2023-03-14T09:45:35;96117.16;;;8.72;82.18
46392;BME280;32098;49.448;7.904;2023-03-14T09:48:04;96096.09;;;8.50;81.84
46392;BME280;32098;49.448;7.904;2023-03-14T09:50:37;96116.06;;;8.73;82.65
46392;BME280;32098;49.448;7.904;2023-03-14T09:53:11;96111.00;;;8.62;82.47
46392;BME280;32098;49.448;7.904;2023-03-14T09:55:39;96125.66;;;8.49;83.09
46392;BME280;32098;49.448;7.904;2023-03-14T09:58:11;96106.75;;;8.45;83.31
46392;BME280;32098;49.448;7.904;2023-03-14T10:00:39;96106.22;;;8.64;83.35
46392;BME280;32098;49.448;7.904;2023-03-14T10:05:39;96104.91;;;8.71;81.61
46392;BME280;32098;49.448;7.904;2023-03-14T10:08:06;96105.41;;;8.83;82.38
46392;BME280;32098;49.448;7.904;2023-03-14T10:10:36;96106.19;;;8.84;82.62
46392;BME280;32098;49.448;7.904;2023-03-14T10:15:40;96094.22;;;8.86;82.31
46392;BME280;32098;49.448;7.904;2023-03-14T10:18:12;96110.69;;;8.98;82.03
46392;BME280;32098;49.448;7.904;2023-03-14T10:20:41;96114.16;;;8.99;82.57
46392;BME280;32098;49.448;7.904;2023-03-14T10:25:40;96114.72;;;8.71;82.86
46392;BME280;32098;49.448;7.904;2023-03-14T10:28:24;96115.53;;;8.71;84.13
46392;BME280;32098;49.448;7.904;2023-03-14T10:30:51;96125.13;;;8.72;83.16
46392;BME280;32098;49.448;7.904;2023-03-14T10:35:44;96128.03;;;8.71;83.54
46392;BME280;32098;49.448;7.904;2023-03-14T10:38:17;96138.44;;;8.77;83.41
46392;BME280;32098;49.448;7.904;2023-03-14T10:40:48;96133.09;;;8.57;83.38
46392;BME280;32098;49.448;7.904;2023-03-14T10:43:18;96143.75;;;8.47;84.72
46392;BME280;32098;49.448;7.904;2023-03-14T10:45:58;96141.59;;;8.49;85.36
46392;BME280;32098;49.448;7.904;2023-03-14T10:48:35;96142.66;;;8.53;85.59
46392;BME280;32098;49.448;7.904;2023-03-14T10:53:44;96151.16;;;8.60;85.74
46392;BME280;32098;49.448;7.904;2023-03-14T10:56:17;96164.75;;;8.43;85.97
46392;BME280;32098;49.448;7.904;2023-03-14T10:58:46;96170.06;;;8.38;85.96
46392;BME280;32098;49.448;7.904;2023-03-14T11:04:14;96203.81;;;8.38;85.40
46392;BME280;32098;49.448;7.904;2023-03-14T11:06:46;96213.41;;;8.34;85.30
46392;BME280;32098;49.448;7.904;2023-03-14T11:12:25;96234.09;;;8.07;80.40
46392;BME280;32098;49.448;7.904;2023-03-14T11:15:01;96214.31;;;7.77;79.64
46392;BME280;32098;49.448;7.904;2023-03-14T11:17:46;96255.84;;;7.93;79.66
46392;BME280;32098;49.448;7.904;2023-03-14T11:23:12;96256.94;;;8.08;79.56
46392;BME280;32098;49.448;7.904;2023-03-14T11:28:19;96277.09;;;7.93;78.60
46392;BME280;32098;49.448;7.904;2023-03-14T11:30:54;96274.94;;;7.85;78.51
46392;BME280;32098;49.448;7.904;2023-03-14T11:33:25;96292.78;;;7.95;77.60
46392;BME280;32098;49.448;7.904;2023-03-14T11:41:34;96298.84;;;7.39;78.10
46392;BME280;32098;49.448;7.904;2023-03-14T11:44:17;96334.25;;;7.49;78.14
46392;BME280;32098;49.448;7.904;2023-03-14T11:46:53;96351.00;;;7.55;77.51
46392;BME280;32098;49.448;7.904;2023-03-14T11:49:32;96355.75;;;7.48;77.96
46392;BME280;32098;49.448;7.904;2023-03-14T11:52:05;96351.63;;;7.30;75.07
46392;BME280;32098;49.448;7.904;2023-03-14T11:54:43;96327.94;;;6.92;73.82
46392;BME280;32098;49.448;7.904;2023-03-14T11:57:16;96383.44;;;7.25;73.83
46392;BME280;32098;49.448;7.904;2023-03-14T12:02:26;96396.66;;;7.20;73.16
46392;BME280;32098;49.448;7.904;2023-03-14T12:07:36;96423.88;;;7.32;74.44
46392;BME280;32098;49.448;7.904;2023-03-14T12:10:06;96445.38;;;7.09;76.63
46392;BME280;32098;49.448;7.904;2023-03-14T12:12:33;96455.69;;;7.05;77.56
46392;BME280;32098;49.448;7.904;2023-03-14T12:15:02;96459.06;;;6.96;77.31
46392;BME280;32098;49.448;7.904;2023-03-14T12:17:37;96478.13;;;6.93;78.31
46392;BME280;32098;49.448;7.904;2023-03-14T12:22:52;96494.47;;;7.06;77.13
46392;BME280;32098;49.448;7.904;2023-03-14T12:25:27;96476.06;;;7.00;76.11
46392;BME280;32098;49.448;7.904;2023-03-14T12:30:54;96522.78;;;7.22;74.53
46392;BME280;32098;49.448;7.904;2023-03-14T12:33:27;96508.38;;;7.40;75.02
46392;BME280;32098;49.448;7.904;2023-03-14T12:36:02;96521.19;;;7.48;71.13
46392;BME280;32098;49.448;7.904;2023-03-14T12:41:15;96551.59;;;7.36;67.80
46392;BME280;32098;49.448;7.904;2023-03-14T12:43:43;96549.00;;;7.41;65.89
46392;BME280;32098;49.448;7.904;2023-03-14T12:48:40;96568.56;;;7.35;63.70
46392;BME280;32098;49.448;7.904;2023-03-14T12:51:18;96591.75;;;7.39;64.71
46392;BME280;32098;49.448;7.904;2023-03-14T12:53:59;96585.16;;;7.20;62.15
46392;BME280;32098;49.448;7.904;2023-03-14T12:59:38;96609.50;;;7.12;62.43
46392;BME280;32098;49.448;7.904;2023-03-14T13:04:36;96630.84;;;7.22;60.16
46392;BME280;32098;49.448;7.904;2023-03-14T13:07:11;96644.97;;;7.27;60.66
46392;BME280;32098;49.448;7.904;2023-03-14T13:09:55;96636.50;;;7.09;58.68
46392;BME280;32098;49.448;7.904;2023-03-14T13:12:36;96655.00;;;7.04;58.41
46392;BME280;32098;49.448;7.904;2023-03-14T13:15:14;96683.72;;;7.07;56.89
46392;BME280;32098;49.448;7.904;2023-03-14T13:17:43;96692.16;;;6.87;55.97
46392;BME280;32098;49.448;7.904;2023-03-14T13:20:22;96674.50;;;6.76;56.05
46392;BME280;32098;49.448;7.904;2023-03-14T13:22:49;96690.25;;;6.83;54.77
46392;BME280;32098;49.448;7.904;2023-03-14T13:25:16;96694.44;;;6.79;54.11
46392;BME280;32098;49.448;7.904;2023-03-14T13:27:47;96721.84;;;6.84;53.57
46392;BME280;32098;49.448;7.904;2023-03-14T13:30:26;96739.28;;;6.80;54.89
46392;BME280;32098;49.448;7.904;2023-03-14T13:32:55;96731.38;;;6.52;55.95
46392;BME280;32098;49.448;7.904;2023-03-14T13:35:24;96738.88;;;6.55;57.21
46392;BME280;32098;49.448;7.904;2023-03-14T13:38:00;96739.44;;;6.57;56.85
46392;BME280;32098;49.448;7.904;2023-03-14T13:40:43;96749.91;;;6.63;56.33
46392;BME280;32098;49.448;7.904;2023-03-14T13:45:56;96746.13;;;6.93;54.08
46392;BME280;32098;49.448;7.904;2023-03-14T13:48:28;96748.44;;;7.06;54.72
46392;BME280;32098;49.448;7.904;2023-03-14T13:50:58;96758.28;;;7.22;54.41
46392;BME280;32098;49.448;7.904;2023-03-14T13:53:25;96762.75;;;7.38;53.11
46392;BME280;32098;49.448;7.904;2023-03-14T13:55:52;96765.16;;;7.40;52.79
46392;BME280;32098;49.448;7.904;2023-03-14T13:58:22;96766.13;;;7.34;51.77
46392;BME280;32098;49.448;7.904;2023-03-14T14:01:01;96789.47;;;7.15;51.70
46392;BME280;32098;49.448;7.904;2023-03-14T14:03:36;96804.97;;;7.40;51.55
46392;BME280;32098;49.448;7.904;2023-03-14T14:06:03;96813.22;;;7.21;52.21
46392;BME280;32098;49.448;7.904;2023-03-14T14:08:31;96818.28;;;7.23;53.12
46392;BME280;32098;49.448;7.904;2023-03-14T14:11:03;96821.66;;;7.35;51.48
46392;BME280;32098;49.448;7.904;2023-03-14T14:13:32;96825.06;;;7.14;50.06
46392;BME280;32098;49.448;7.904;2023-03-14T14:16:02;96838.34;;;6.86;50.98
46392;BME280;32098;49.448;7.904;2023-03-14T14:18:31;96854.53;;;7.01;52.01
46392;BME280;32098;49.448;7.904;2023-03-14T14:20:58;96848.88;;;6.81;50.38
46392;BME280;32098;49.448;7.904;2023-03-14T14:23:26;96872.84;;;6.86;50.72
46392;BME280;32098;49.448;7.904;2023-03-14T14:25:57;96848.13;;;6.68;49.68
46392;BME280;32098;49.448;7.904;2023-03-14T14:28:33;96879.69;;;6.82;52.95
46392;BME280;32098;49.448;7.904;2023-03-14T14:31:22;96877.34;;;6.85;51.57
46392;BME280;32098;49.448;7.904;2023-03-14T14:34:04;96871.00;;;7.03;49.69
46392;BME280;32098;49.448;7.904;2023-03-14T14:36:37;96892.72;;;7.00;49.96
46392;BME280;32098;49.448;7.904;2023-03-14T14:39:17;96878.25;;;6.91;48.89
46392;BME280;32098;49.448;7.904;2023-03-14T14:41:48;96893.22;;;6.97;49.39